sensor_id;sensor_type;location;lat;lon;timestamp;P1;durP1;ratioP1;P2;durP2;ratioP2
33254;SDS011;19623;52.482;9.762;2022-10-16T00:01:26;5.15;;;1.33;;
33254;SDS011;19623;52.482;9.762;2022-10-16T00:03:54;2.28;;;1.10;;
33254;SDS011;19623;52.482;9.762;2022-10-16T00:06:21;1.67;;;1.30;;
33254;SDS011;19623;52.482;9.762;2022-10-16T00:08:48;3.92;;;1.02;;
33254;SDS011;19623;52.482;9.762;2022-10-16T00:14:02;1.67;;;0.93;;
33254;SDS011;19623;52.482;9.762;2022-10-16T00:16:30;1.90;;;1.30;;
33254;SDS011;19623;52.482;9.762;2022-10-16T00:18:56;1.52;;;1.20;;
33254;SDS011;19623;52.482;9.762;2022-10-16T00:21:24;1.67;;;1.13;;
33254;SDS011;19623;52.482;9.762;2022-10-16T00:24:01;5.72;;;1.15;;
33254;SDS011;19623;52.482;9.762;2022-10-16T00:26:33;7.68;;;1.30;;
33254;SDS011;19623;52.482;9.762;2022-10-16T00:29:00;2.58;;;1.23;;
33254;SDS011;19623;52.482;9.762;2022-10-16T00:31:26;4.10;;;1.10;;
33254;SDS011;19623;52.482;9.762;2022-10-16T00:33:52;2.70;;;1.20;;
33254;SDS011;19623;52.482;9.762;2022-10-16T00:36:19;1.65;;;1.00;;
33254;SDS011;19623;52.482;9.762;2022-10-16T00:38:49;4.22;;;1.08;;
33254;SDS011;19623;52.482;9.762;2022-10-16T00:41:17;4.85;;;1.15;;
33254;SDS011;19623;52.482;9.762;2022-10-16T00:43:45;7.97;;;1.40;;
33254;SDS011;19623;52.482;9.762;2022-10-16T00:46:21;2.03;;;1.40;;
33254;SDS011;19623;52.482;9.762;2022-10-16T00:51:42;2.05;;;1.33;;
33254;SDS011;19623;52.482;9.762;2022-10-16T00:54:21;2.38;;;1.23;;
33254;SDS011;19623;52.482;9.762;2022-10-16T00:56:49;1.77;;;1.30;;
33254;SDS011;19623;52.482;9.762;2022-10-16T00:59:16;2.47;;;1.20;;
33254;SDS011;19623;52.482;9.762;2022-10-16T01:01:45;2.90;;;1.40;;
33254;SDS011;19623;52.482;9.762;2022-10-16T01:04:11;6.20;;;1.40;;
33254;SDS011;19623;52.482;9.762;2022-10-16T01:07:01;9.68;;;1.75;;
33254;SDS011;19623;52.482;9.762;2022-10-16T01:14:45;1.35;;;0.90;;
33254;SDS011;19623;52.482;9.762;2022-10-16T01:17:34;2.67;;;1.17;;
33254;SDS011;19623;52.482;9.762;2022-10-16T01:28:34;6.13;;;1.38;;
33254;SDS011;19623;52.482;9.762;2022-10-16T01:31:09;2.30;;;1.05;;
33254;SDS011;19623;52.482;9.762;2022-10-16T01:33:56;2.55;;;1.25;;
33254;SDS011;19623;52.482;9.762;2022-10-16T01:36:30;2.85;;;1.27;;
33254;SDS011;19623;52.482;9.762;2022-10-16T01:39:10;3.15;;;1.20;;
33254;SDS011;19623;52.482;9.762;2022-10-16T01:41:38;5.38;;;1.45;;
33254;SDS011;19623;52.482;9.762;2022-10-16T01:44:12;2.80;;;1.23;;
33254;SDS011;19623;52.482;9.762;2022-10-16T01:46:43;1.65;;;1.15;;
33254;SDS011;19623;52.482;9.762;2022-10-16T01:49:12;2.40;;;1.17;;
33254;SDS011;19623;52.482;9.762;2022-10-16T01:51:38;2.45;;;1.52;;
33254;SDS011;19623;52.482;9.762;2022-10-16T01:54:04;2.65;;;1.33;;
33254;SDS011;19623;52.482;9.762;2022-10-16T01:56:33;2.90;;;1.20;;
33254;SDS011;19623;52.482;9.762;2022-10-16T01:59:06;2.50;;;1.33;;
33254;SDS011;19623;52.482;9.762;2022-10-16T02:01:36;6.30;;;1.67;;
33254;SDS011;19623;52.482;9.762;2022-10-16T02:04:10;2.72;;;1.42;;
33254;SDS011;19623;52.482;9.762;2022-10-16T02:06:39;4.15;;;1.67;;
33254;SDS011;19623;52.482;9.762;2022-10-16T02:09:05;8.60;;;1.65;;
33254;SDS011;19623;52.482;9.762;2022-10-16T02:11:31;4.40;;;1.55;;
33254;SDS011;19623;52.482;9.762;2022-10-16T02:13:58;4.15;;;1.67;;
33254;SDS011;19623;52.482;9.762;2022-10-16T02:16:35;3.78;;;1.50;;
33254;SDS011;19623;52.482;9.762;2022-10-16T02:19:05;3.85;;;1.48;;
33254;SDS011;19623;52.482;9.762;2022-10-16T02:21:40;2.28;;;1.67;;
33254;SDS011;19623;52.482;9.762;2022-10-16T02:26:54;3.58;;;1.60;;
33254;SDS011;19623;52.482;9.762;2022-10-16T02:29:28;6.72;;;1.50;;
33254;SDS011;19623;52.482;9.762;2022-10-16T02:31:55;6.22;;;1.70;;
33254;SDS011;19623;52.482;9.762;2022-10-16T02:34:25;7.15;;;1.80;;
33254;SDS011;19623;52.482;9.762;2022-10-16T02:36:54;17.17;;;2.58;;
33254;SDS011;19623;52.482;9.762;2022-10-16T02:39:21;5.40;;;2.08;;
33254;SDS011;19623;52.482;9.762;2022-10-16T02:41:47;6.07;;;1.63;;
33254;SDS011;19623;52.482;9.762;2022-10-16T02:44:13;4.93;;;2.15;;
33254;SDS011;19623;52.482;9.762;2022-10-16T02:46:38;3.55;;;1.67;;
33254;SDS011;19623;52.482;9.762;2022-10-16T02:49:04;8.38;;;2.08;;
33254;SDS011;19623;52.482;9.762;2022-10-16T02:51:30;2.30;;;1.75;;
33254;SDS011;19623;52.482;9.762;2022-10-16T02:53:55;7.45;;;2.20;;
33254;SDS011;19623;52.482;9.762;2022-10-16T02:56:21;3.00;;;2.10;;
33254;SDS011;19623;52.482;9.762;2022-10-16T02:58:47;7.65;;;2.00;;
33254;SDS011;19623;52.482;9.762;2022-10-16T03:01:13;6.18;;;2.00;;
33254;SDS011;19623;52.482;9.762;2022-10-16T03:03:41;3.58;;;1.70;;
33254;SDS011;19623;52.482;9.762;2022-10-16T03:06:07;8.25;;;3.97;;
33254;SDS011;19623;52.482;9.762;2022-10-16T03:08:33;3.33;;;1.50;;
33254;SDS011;19623;52.482;9.762;2022-10-16T03:10:58;4.28;;;1.90;;
33254;SDS011;19623;52.482;9.762;2022-10-16T03:13:24;2.50;;;1.77;;
33254;SDS011;19623;52.482;9.762;2022-10-16T03:15:49;9.40;;;1.90;;
33254;SDS011;19623;52.482;9.762;2022-10-16T03:18:15;2.47;;;1.70;;
33254;SDS011;19623;52.482;9.762;2022-10-16T03:20:42;4.72;;;2.00;;
33254;SDS011;19623;52.482;9.762;2022-10-16T03:23:08;4.00;;;2.08;;
33254;SDS011;19623;52.482;9.762;2022-10-16T03:25:34;5.30;;;1.60;;
33254;SDS011;19623;52.482;9.762;2022-10-16T03:28:00;12.93;;;2.15;;
33254;SDS011;19623;52.482;9.762;2022-10-16T03:30:26;8.02;;;2.00;;
33254;SDS011;19623;52.482;9.762;2022-10-16T03:32:51;5.30;;;1.90;;
33254;SDS011;19623;52.482;9.762;2022-10-16T03:35:19;8.95;;;2.05;;
33254;SDS011;19623;52.482;9.762;2022-10-16T03:37:48;4.22;;;1.88;;
33254;SDS011;19623;52.482;9.762;2022-10-16T03:40:14;4.13;;;1.80;;
33254;SDS011;19623;52.482;9.762;2022-10-16T03:42:40;5.38;;;1.83;;
33254;SDS011;19623;52.482;9.762;2022-10-16T03:45:07;5.70;;;1.80;;
33254;SDS011;19623;52.482;9.762;2022-10-16T03:47:33;3.40;;;2.25;;
33254;SDS011;19623;52.482;9.762;2022-10-16T03:49:59;3.90;;;2.28;;
33254;SDS011;19623;52.482;9.762;2022-10-16T03:52:25;6.55;;;1.90;;
33254;SDS011;19623;52.482;9.762;2022-10-16T03:54:50;6.15;;;2.08;;
33254;SDS011;19623;52.482;9.762;2022-10-16T03:57:16;4.82;;;1.85;;
33254;SDS011;19623;52.482;9.762;2022-10-16T03:59:42;6.82;;;1.98;;
33254;SDS011;19623;52.482;9.762;2022-10-16T04:02:08;4.93;;;1.92;;
33254;SDS011;19623;52.482;9.762;2022-10-16T04:04:34;4.35;;;2.10;;
33254;SDS011;19623;52.482;9.762;2022-10-16T04:07:00;6.53;;;2.20;;
33254;SDS011;19623;52.482;9.762;2022-10-16T04:09:26;4.78;;;2.00;;
33254;SDS011;19623;52.482;9.762;2022-10-16T04:11:52;2.97;;;1.95;;
33254;SDS011;19623;52.482;9.762;2022-10-16T04:14:18;3.65;;;1.60;;
33254;SDS011;19623;52.482;9.762;2022-10-16T04:16:43;2.25;;;1.50;;
33254;SDS011;19623;52.482;9.762;2022-10-16T04:19:09;4.18;;;1.80;;
33254;SDS011;19623;52.482;9.762;2022-10-16T04:21:36;5.13;;;1.73;;
33254;SDS011;19623;52.482;9.762;2022-10-16T04:24:01;4.75;;;1.70;;
33254;SDS011;19623;52.482;9.762;2022-10-16T04:26:27;5.85;;;2.10;;
33254;SDS011;19623;52.482;9.762;2022-10-16T04:28:53;3.60;;;2.05;;
33254;SDS011;19623;52.482;9.762;2022-10-16T04:31:19;3.67;;;2.05;;
33254;SDS011;19623;52.482;9.762;2022-10-16T04:33:45;4.70;;;1.90;;
33254;SDS011;19623;52.482;9.762;2022-10-16T04:36:11;4.15;;;2.70;;
33254;SDS011;19623;52.482;9.762;2022-10-16T04:38:36;4.43;;;2.47;;
33254;SDS011;19623;52.482;9.762;2022-10-16T04:41:02;11.70;;;3.25;;
33254;SDS011;19623;52.482;9.762;2022-10-16T04:43:29;9.32;;;3.13;;
33254;SDS011;19623;52.482;9.762;2022-10-16T04:45:55;13.82;;;3.33;;
33254;SDS011;19623;52.482;9.762;2022-10-16T04:48:21;7.80;;;3.72;;
33254;SDS011;19623;52.482;9.762;2022-10-16T04:50:47;8.90;;;3.17;;
33254;SDS011;19623;52.482;9.762;2022-10-16T04:53:13;11.18;;;3.03;;
33254;SDS011;19623;52.482;9.762;2022-10-16T04:55:38;7.63;;;3.05;;
33254;SDS011;19623;52.482;9.762;2022-10-16T04:58:06;6.95;;;3.40;;
33254;SDS011;19623;52.482;9.762;2022-10-16T05:00:31;6.07;;;3.15;;
33254;SDS011;19623;52.482;9.762;2022-10-16T05:02:57;4.60;;;2.90;;
33254;SDS011;19623;52.482;9.762;2022-10-16T05:05:25;4.13;;;2.85;;
33254;SDS011;19623;52.482;9.762;2022-10-16T05:07:51;8.07;;;2.72;;
33254;SDS011;19623;52.482;9.762;2022-10-16T05:10:17;9.13;;;2.85;;
33254;SDS011;19623;52.482;9.762;2022-10-16T05:12:43;9.45;;;3.22;;
33254;SDS011;19623;52.482;9.762;2022-10-16T05:15:09;7.60;;;3.10;;
33254;SDS011;19623;52.482;9.762;2022-10-16T05:17:35;10.18;;;2.72;;
33254;SDS011;19623;52.482;9.762;2022-10-16T05:20:00;5.10;;;2.30;;
33254;SDS011;19623;52.482;9.762;2022-10-16T05:22:26;11.07;;;2.65;;
33254;SDS011;19623;52.482;9.762;2022-10-16T05:24:52;6.05;;;2.50;;
33254;SDS011;19623;52.482;9.762;2022-10-16T05:27:18;4.63;;;2.45;;
33254;SDS011;19623;52.482;9.762;2022-10-16T05:29:47;4.75;;;2.35;;
33254;SDS011;19623;52.482;9.762;2022-10-16T05:32:14;4.18;;;2.63;;
33254;SDS011;19623;52.482;9.762;2022-10-16T05:34:41;7.80;;;2.67;;
33254;SDS011;19623;52.482;9.762;2022-10-16T05:37:07;4.55;;;2.38;;
33254;SDS011;19623;52.482;9.762;2022-10-16T05:39:33;5.32;;;2.72;;
33254;SDS011;19623;52.482;9.762;2022-10-16T05:41:59;5.30;;;2.80;;
33254;SDS011;19623;52.482;9.762;2022-10-16T05:44:24;2.80;;;2.20;;
33254;SDS011;19623;52.482;9.762;2022-10-16T05:46:50;2.65;;;2.00;;
33254;SDS011;19623;52.482;9.762;2022-10-16T05:49:16;3.08;;;2.42;;
33254;SDS011;19623;52.482;9.762;2022-10-16T05:51:41;6.38;;;3.25;;
33254;SDS011;19623;52.482;9.762;2022-10-16T05:54:07;5.57;;;3.25;;
33254;SDS011;19623;52.482;9.762;2022-10-16T05:56:33;6.22;;;2.85;;
33254;SDS011;19623;52.482;9.762;2022-10-16T05:58:59;4.10;;;2.65;;
33254;SDS011;19623;52.482;9.762;2022-10-16T06:01:25;6.18;;;2.80;;
33254;SDS011;19623;52.482;9.762;2022-10-16T06:03:51;7.13;;;2.78;;
33254;SDS011;19623;52.482;9.762;2022-10-16T06:06:18;7.15;;;3.22;;
33254;SDS011;19623;52.482;9.762;2022-10-16T06:08:46;3.72;;;2.70;;
33254;SDS011;19623;52.482;9.762;2022-10-16T06:11:14;7.32;;;2.58;;
33254;SDS011;19623;52.482;9.762;2022-10-16T06:13:42;4.55;;;3.03;;
33254;SDS011;19623;52.482;9.762;2022-10-16T06:16:10;5.53;;;2.88;;
33254;SDS011;19623;52.482;9.762;2022-10-16T06:18:37;6.10;;;3.35;;
33254;SDS011;19623;52.482;9.762;2022-10-16T06:21:07;6.32;;;3.03;;
33254;SDS011;19623;52.482;9.762;2022-10-16T06:23:34;8.70;;;3.30;;
33254;SDS011;19623;52.482;9.762;2022-10-16T06:26:10;4.03;;;2.70;;
33254;SDS011;19623;52.482;9.762;2022-10-16T06:28:38;8.13;;;3.17;;
33254;SDS011;19623;52.482;9.762;2022-10-16T06:31:04;5.78;;;2.72;;
33254;SDS011;19623;52.482;9.762;2022-10-16T06:33:31;8.43;;;2.70;;
33254;SDS011;19623;52.482;9.762;2022-10-16T06:36:01;6.35;;;2.28;;
33254;SDS011;19623;52.482;9.762;2022-10-16T06:38:28;6.38;;;1.90;;
33254;SDS011;19623;52.482;9.762;2022-10-16T06:40:54;4.95;;;2.33;;
33254;SDS011;19623;52.482;9.762;2022-10-16T06:43:19;4.22;;;2.40;;
33254;SDS011;19623;52.482;9.762;2022-10-16T06:45:54;9.55;;;3.20;;
33254;SDS011;19623;52.482;9.762;2022-10-16T06:48:23;7.15;;;2.40;;
33254;SDS011;19623;52.482;9.762;2022-10-16T06:53:33;5.53;;;2.45;;
33254;SDS011;19623;52.482;9.762;2022-10-16T06:56:33;5.22;;;2.58;;
33254;SDS011;19623;52.482;9.762;2022-10-16T06:58:53;2.75;;;1.92;;
33254;SDS011;19623;52.482;9.762;2022-10-16T07:01:20;5.15;;;1.90;;
33254;SDS011;19623;52.482;9.762;2022-10-16T07:03:47;5.78;;;1.58;;
33254;SDS011;19623;52.482;9.762;2022-10-16T07:06:14;5.00;;;1.58;;
33254;SDS011;19623;52.482;9.762;2022-10-16T07:08:43;2.60;;;1.85;;
33254;SDS011;19623;52.482;9.762;2022-10-16T07:11:10;2.95;;;1.67;;
33254;SDS011;19623;52.482;9.762;2022-10-16T07:13:39;4.10;;;1.65;;
33254;SDS011;19623;52.482;9.762;2022-10-16T07:18:32;3.80;;;1.60;;
33254;SDS011;19623;52.482;9.762;2022-10-16T07:21:20;2.38;;;1.20;;
33254;SDS011;19623;52.482;9.762;2022-10-16T07:23:53;3.58;;;1.65;;
33254;SDS011;19623;52.482;9.762;2022-10-16T07:26:23;3.53;;;1.42;;
33254;SDS011;19623;52.482;9.762;2022-10-16T07:28:50;2.45;;;1.30;;
33254;SDS011;19623;52.482;9.762;2022-10-16T07:31:16;3.88;;;1.70;;
33254;SDS011;19623;52.482;9.762;2022-10-16T07:33:44;11.10;;;1.67;;
33254;SDS011;19623;52.482;9.762;2022-10-16T07:36:11;2.53;;;1.25;;
33254;SDS011;19623;52.482;9.762;2022-10-16T07:38:37;3.75;;;1.30;;
33254;SDS011;19623;52.482;9.762;2022-10-16T07:41:05;3.67;;;1.30;;
33254;SDS011;19623;52.482;9.762;2022-10-16T07:43:32;3.45;;;1.40;;
33254;SDS011;19623;52.482;9.762;2022-10-16T07:45:58;1.20;;;1.10;;
33254;SDS011;19623;52.482;9.762;2022-10-16T07:48:26;2.35;;;1.40;;
33254;SDS011;19623;52.482;9.762;2022-10-16T07:50:56;4.70;;;1.25;;
33254;SDS011;19623;52.482;9.762;2022-10-16T07:53:26;2.58;;;0.95;;
33254;SDS011;19623;52.482;9.762;2022-10-16T07:55:52;3.75;;;1.10;;
33254;SDS011;19623;52.482;9.762;2022-10-16T07:58:22;1.50;;;1.20;;
33254;SDS011;19623;52.482;9.762;2022-10-16T08:00:48;2.35;;;1.00;;
33254;SDS011;19623;52.482;9.762;2022-10-16T08:03:13;2.88;;;1.33;;
33254;SDS011;19623;52.482;9.762;2022-10-16T08:05:39;1.20;;;1.02;;
33254;SDS011;19623;52.482;9.762;2022-10-16T08:08:05;1.20;;;1.00;;
33254;SDS011;19623;52.482;9.762;2022-10-16T08:10:30;3.10;;;1.00;;
33254;SDS011;19623;52.482;9.762;2022-10-16T08:12:56;2.15;;;1.00;;
33254;SDS011;19623;52.482;9.762;2022-10-16T08:15:22;1.58;;;1.13;;
33254;SDS011;19623;52.482;9.762;2022-10-16T08:17:55;3.67;;;0.90;;
33254;SDS011;19623;52.482;9.762;2022-10-16T08:20:22;0.77;;;0.73;;
33254;SDS011;19623;52.482;9.762;2022-10-16T08:22:48;2.17;;;0.90;;
33254;SDS011;19623;52.482;9.762;2022-10-16T08:25:13;2.08;;;0.80;;
33254;SDS011;19623;52.482;9.762;2022-10-16T08:27:39;1.90;;;0.75;;
33254;SDS011;19623;52.482;9.762;2022-10-16T08:30:05;2.25;;;0.90;;
33254;SDS011;19623;52.482;9.762;2022-10-16T08:32:31;2.80;;;1.00;;
33254;SDS011;19623;52.482;9.762;2022-10-16T08:34:57;3.20;;;0.85;;
33254;SDS011;19623;52.482;9.762;2022-10-16T08:37:22;1.65;;;0.90;;
33254;SDS011;19623;52.482;9.762;2022-10-16T08:39:48;1.02;;;0.88;;
33254;SDS011;19623;52.482;9.762;2022-10-16T08:45:19;0.77;;;0.73;;
33254;SDS011;19623;52.482;9.762;2022-10-16T08:48:08;1.77;;;0.80;;
33254;SDS011;19623;52.482;9.762;2022-10-16T08:50:40;1.00;;;0.77;;
33254;SDS011;19623;52.482;9.762;2022-10-16T08:53:07;2.47;;;0.80;;
33254;SDS011;19623;52.482;9.762;2022-10-16T08:55:48;0.60;;;0.60;;
33254;SDS011;19623;52.482;9.762;2022-10-16T08:58:17;3.22;;;0.70;;
33254;SDS011;19623;52.482;9.762;2022-10-16T09:01:04;0.85;;;0.70;;
33254;SDS011;19623;52.482;9.762;2022-10-16T09:06:29;0.75;;;0.68;;
33254;SDS011;19623;52.482;9.762;2022-10-16T09:09:27;1.98;;;0.90;;
33254;SDS011;19623;52.482;9.762;2022-10-16T09:12:28;5.82;;;1.05;;
33254;SDS011;19623;52.482;9.762;2022-10-16T09:15:20;0.88;;;0.70;;
33254;SDS011;19623;52.482;9.762;2022-10-16T09:25:49;0.98;;;0.70;;
33254;SDS011;19623;52.482;9.762;2022-10-16T09:28:16;3.17;;;0.82;;
33254;SDS011;19623;52.482;9.762;2022-10-16T09:30:43;5.00;;;0.70;;
33254;SDS011;19623;52.482;9.762;2022-10-16T09:33:10;3.03;;;0.88;;
33254;SDS011;19623;52.482;9.762;2022-10-16T09:35:38;4.70;;;1.05;;
33254;SDS011;19623;52.482;9.762;2022-10-16T09:38:09;2.63;;;0.80;;
33254;SDS011;19623;52.482;9.762;2022-10-16T09:40:56;3.92;;;0.98;;
33254;SDS011;19623;52.482;9.762;2022-10-16T09:43:25;1.17;;;0.63;;
33254;SDS011;19623;52.482;9.762;2022-10-16T09:46:05;0.75;;;0.70;;
33254;SDS011;19623;52.482;9.762;2022-10-16T09:48:36;2.45;;;0.73;;
33254;SDS011;19623;52.482;9.762;2022-10-16T09:51:15;1.88;;;0.70;;
33254;SDS011;19623;52.482;9.762;2022-10-16T09:54:33;0.70;;;0.68;;
33254;SDS011;19623;52.482;9.762;2022-10-16T09:56:42;1.77;;;0.90;;
33254;SDS011;19623;52.482;9.762;2022-10-16T10:01:39;1.58;;;0.60;;
33254;SDS011;19623;52.482;9.762;2022-10-16T10:04:10;2.20;;;0.52;;
33254;SDS011;19623;52.482;9.762;2022-10-16T10:06:37;2.20;;;0.80;;
33254;SDS011;19623;52.482;9.762;2022-10-16T10:09:27;1.42;;;0.80;;
33254;SDS011;19623;52.482;9.762;2022-10-16T10:12:31;1.45;;;0.68;;
33254;SDS011;19623;52.482;9.762;2022-10-16T10:15:07;2.38;;;1.08;;
33254;SDS011;19623;52.482;9.762;2022-10-16T10:17:46;1.13;;;0.57;;
33254;SDS011;19623;52.482;9.762;2022-10-16T10:20:30;2.70;;;0.88;;
33254;SDS011;19623;52.482;9.762;2022-10-16T10:23:24;3.03;;;0.80;;
33254;SDS011;19623;52.482;9.762;2022-10-16T10:31:25;6.35;;;0.90;;
33254;SDS011;19623;52.482;9.762;2022-10-16T10:36:39;3.20;;;0.90;;
33254;SDS011;19623;52.482;9.762;2022-10-16T10:52:47;1.23;;;0.70;;
33254;SDS011;19623;52.482;9.762;2022-10-16T11:01:07;2.55;;;0.77;;
33254;SDS011;19623;52.482;9.762;2022-10-16T11:06:30;6.13;;;1.23;;
33254;SDS011;19623;52.482;9.762;2022-10-16T11:09:14;4.82;;;0.80;;
33254;SDS011;19623;52.482;9.762;2022-10-16T11:11:48;3.22;;;1.17;;
33254;SDS011;19623;52.482;9.762;2022-10-16T11:14:31;2.40;;;0.75;;
33254;SDS011;19623;52.482;9.762;2022-10-16T11:17:07;3.08;;;0.75;;
33254;SDS011;19623;52.482;9.762;2022-10-16T11:19:39;2.30;;;0.85;;
33254;SDS011;19623;52.482;9.762;2022-10-16T11:24:53;4.68;;;0.52;;
33254;SDS011;19623;52.482;9.762;2022-10-16T11:27:36;1.15;;;0.50;;
33254;SDS011;19623;52.482;9.762;2022-10-16T11:30:04;2.22;;;0.55;;
33254;SDS011;19623;52.482;9.762;2022-10-16T11:38:14;2.75;;;0.63;;
33254;SDS011;19623;52.482;9.762;2022-10-16T11:40:48;3.30;;;0.70;;
33254;SDS011;19623;52.482;9.762;2022-10-16T11:43:20;1.83;;;0.50;;
33254;SDS011;19623;52.482;9.762;2022-10-16T11:45:57;3.72;;;0.70;;
33254;SDS011;19623;52.482;9.762;2022-10-16T11:48:33;2.45;;;0.65;;
33254;SDS011;19623;52.482;9.762;2022-10-16T11:51:06;4.18;;;0.68;;
33254;SDS011;19623;52.482;9.762;2022-10-16T11:53:38;1.92;;;0.47;;
33254;SDS011;19623;52.482;9.762;2022-10-16T11:56:04;2.15;;;0.65;;
33254;SDS011;19623;52.482;9.762;2022-10-16T11:58:39;2.10;;;0.80;;
33254;SDS011;19623;52.482;9.762;2022-10-16T12:01:21;2.28;;;0.52;;
33254;SDS011;19623;52.482;9.762;2022-10-16T12:09:01;0.93;;;0.60;;
33254;SDS011;19623;52.482;9.762;2022-10-16T12:16:37;1.40;;;0.55;;
33254;SDS011;19623;52.482;9.762;2022-10-16T12:19:14;1.48;;;0.77;;
33254;SDS011;19623;52.482;9.762;2022-10-16T12:21:44;2.45;;;0.60;;
33254;SDS011;19623;52.482;9.762;2022-10-16T12:24:20;3.83;;;0.60;;
33254;SDS011;19623;52.482;9.762;2022-10-16T12:26:51;2.28;;;0.68;;
33254;SDS011;19623;52.482;9.762;2022-10-16T12:34:52;1.92;;;0.60;;
33254;SDS011;19623;52.482;9.762;2022-10-16T12:37:21;1.05;;;0.55;;
33254;SDS011;19623;52.482;9.762;2022-10-16T12:39:50;1.35;;;0.70;;
33254;SDS011;19623;52.482;9.762;2022-10-16T12:42:19;4.97;;;0.57;;
33254;SDS011;19623;52.482;9.762;2022-10-16T12:44:52;2.72;;;0.60;;
33254;SDS011;19623;52.482;9.762;2022-10-16T12:47:22;4.75;;;0.75;;
33254;SDS011;19623;52.482;9.762;2022-10-16T12:50:00;0.82;;;0.57;;
33254;SDS011;19623;52.482;9.762;2022-10-16T12:52:27;1.73;;;0.70;;
33254;SDS011;19623;52.482;9.762;2022-10-16T12:54:59;2.42;;;0.77;;
33254;SDS011;19623;52.482;9.762;2022-10-16T13:03:24;1.80;;;0.70;;
33254;SDS011;19623;52.482;9.762;2022-10-16T13:17:18;4.60;;;1.02;;
33254;SDS011;19623;52.482;9.762;2022-10-16T13:30:18;2.40;;;0.60;;
33254;SDS011;19623;52.482;9.762;2022-10-16T13:32:47;1.60;;;0.60;;
33254;SDS011;19623;52.482;9.762;2022-10-16T13:35:19;2.88;;;0.70;;
33254;SDS011;19623;52.482;9.762;2022-10-16T13:37:51;1.50;;;0.73;;
33254;SDS011;19623;52.482;9.762;2022-10-16T13:40:27;3.13;;;0.75;;
33254;SDS011;19623;52.482;9.762;2022-10-16T13:42:53;1.10;;;0.68;;
33254;SDS011;19623;52.482;9.762;2022-10-16T13:45:23;3.63;;;0.90;;
33254;SDS011;19623;52.482;9.762;2022-10-16T13:48:02;7.68;;;0.70;;
33254;SDS011;19623;52.482;9.762;2022-10-16T13:50:29;5.65;;;0.90;;
33254;SDS011;19623;52.482;9.762;2022-10-16T13:53:04;2.05;;;0.75;;
33254;SDS011;19623;52.482;9.762;2022-10-16T13:55:31;2.88;;;0.95;;
33254;SDS011;19623;52.482;9.762;2022-10-16T13:58:13;1.20;;;0.60;;
33254;SDS011;19623;52.482;9.762;2022-10-16T14:00:40;2.53;;;0.70;;
33254;SDS011;19623;52.482;9.762;2022-10-16T14:03:18;1.80;;;0.65;;
33254;SDS011;19623;52.482;9.762;2022-10-16T14:05:55;2.70;;;0.80;;
33254;SDS011;19623;52.482;9.762;2022-10-16T14:08:24;2.20;;;0.63;;
33254;SDS011;19623;52.482;9.762;2022-10-16T14:11:00;1.83;;;0.70;;
33254;SDS011;19623;52.482;9.762;2022-10-16T14:13:29;3.92;;;0.70;;
33254;SDS011;19623;52.482;9.762;2022-10-16T14:15:55;5.53;;;0.80;;
33254;SDS011;19623;52.482;9.762;2022-10-16T14:18:24;2.85;;;0.70;;
33254;SDS011;19623;52.482;9.762;2022-10-16T14:20:52;1.17;;;0.60;;
33254;SDS011;19623;52.482;9.762;2022-10-16T14:23:35;2.15;;;0.77;;
33254;SDS011;19623;52.482;9.762;2022-10-16T14:28:34;0.80;;;0.60;;
33254;SDS011;19623;52.482;9.762;2022-10-16T14:31:01;2.30;;;0.80;;
33254;SDS011;19623;52.482;9.762;2022-10-16T14:33:45;3.58;;;0.80;;
33254;SDS011;19623;52.482;9.762;2022-10-16T14:36:11;5.20;;;1.10;;
33254;SDS011;19623;52.482;9.762;2022-10-16T14:38:39;1.08;;;0.60;;
33254;SDS011;19623;52.482;9.762;2022-10-16T14:41:13;5.40;;;0.80;;
33254;SDS011;19623;52.482;9.762;2022-10-16T14:43:40;2.53;;;0.70;;
33254;SDS011;19623;52.482;9.762;2022-10-16T14:46:15;1.95;;;0.80;;
33254;SDS011;19623;52.482;9.762;2022-10-16T14:48:43;2.35;;;0.82;;
33254;SDS011;19623;52.482;9.762;2022-10-16T14:51:15;3.63;;;0.85;;
33254;SDS011;19623;52.482;9.762;2022-10-16T14:53:42;2.13;;;0.80;;
33254;SDS011;19623;52.482;9.762;2022-10-16T14:56:16;4.18;;;1.02;;
33254;SDS011;19623;52.482;9.762;2022-10-16T14:58:47;1.65;;;0.55;;
33254;SDS011;19623;52.482;9.762;2022-10-16T15:01:14;2.45;;;0.80;;
33254;SDS011;19623;52.482;9.762;2022-10-16T15:03:40;5.07;;;0.70;;
33254;SDS011;19623;52.482;9.762;2022-10-16T15:06:12;3.08;;;0.95;;
33254;SDS011;19623;52.482;9.762;2022-10-16T15:08:39;1.00;;;0.68;;
33254;SDS011;19623;52.482;9.762;2022-10-16T15:11:15;7.20;;;1.05;;
33254;SDS011;19623;52.482;9.762;2022-10-16T15:13:42;5.45;;;0.88;;
33254;SDS011;19623;52.482;9.762;2022-10-16T15:16:12;2.15;;;1.00;;
33254;SDS011;19623;52.482;9.762;2022-10-16T15:18:39;1.00;;;0.70;;
33254;SDS011;19623;52.482;9.762;2022-10-16T15:21:05;7.10;;;1.00;;
33254;SDS011;19623;52.482;9.762;2022-10-16T15:23:31;2.03;;;0.80;;
33254;SDS011;19623;52.482;9.762;2022-10-16T15:25:57;4.72;;;0.90;;
33254;SDS011;19623;52.482;9.762;2022-10-16T15:28:23;1.70;;;0.90;;
33254;SDS011;19623;52.482;9.762;2022-10-16T15:30:51;1.60;;;0.80;;
33254;SDS011;19623;52.482;9.762;2022-10-16T15:33:20;2.92;;;0.93;;
33254;SDS011;19623;52.482;9.762;2022-10-16T15:35:52;2.10;;;0.85;;
33254;SDS011;19623;52.482;9.762;2022-10-16T15:38:19;2.70;;;0.98;;
33254;SDS011;19623;52.482;9.762;2022-10-16T15:40:46;1.58;;;0.90;;
33254;SDS011;19623;52.482;9.762;2022-10-16T15:43:12;4.07;;;1.25;;
33254;SDS011;19623;52.482;9.762;2022-10-16T15:45:38;6.80;;;1.17;;
33254;SDS011;19623;52.482;9.762;2022-10-16T15:48:05;5.45;;;1.00;;
33254;SDS011;19623;52.482;9.762;2022-10-16T15:50:31;2.20;;;0.80;;
33254;SDS011;19623;52.482;9.762;2022-10-16T15:52:57;4.05;;;1.00;;
33254;SDS011;19623;52.482;9.762;2022-10-16T15:55:23;3.05;;;1.33;;
33254;SDS011;19623;52.482;9.762;2022-10-16T15:57:49;2.03;;;0.82;;
33254;SDS011;19623;52.482;9.762;2022-10-16T16:00:16;1.98;;;0.90;;
33254;SDS011;19623;52.482;9.762;2022-10-16T16:02:50;3.72;;;1.10;;
33254;SDS011;19623;52.482;9.762;2022-10-16T16:05:17;2.13;;;1.10;;
33254;SDS011;19623;52.482;9.762;2022-10-16T16:07:44;4.20;;;1.15;;
33254;SDS011;19623;52.482;9.762;2022-10-16T16:10:10;2.08;;;1.10;;
33254;SDS011;19623;52.482;9.762;2022-10-16T16:12:36;4.53;;;1.60;;
33254;SDS011;19623;52.482;9.762;2022-10-16T16:15:03;3.67;;;1.17;;
33254;SDS011;19623;52.482;9.762;2022-10-16T16:17:31;3.63;;;1.00;;
33254;SDS011;19623;52.482;9.762;2022-10-16T16:19:57;2.88;;;1.20;;
33254;SDS011;19623;52.482;9.762;2022-10-16T16:22:23;2.35;;;1.10;;
33254;SDS011;19623;52.482;9.762;2022-10-16T16:24:49;8.75;;;1.40;;
33254;SDS011;19623;52.482;9.762;2022-10-16T16:27:15;2.03;;;0.95;;
33254;SDS011;19623;52.482;9.762;2022-10-16T16:29:40;1.75;;;0.93;;
33254;SDS011;19623;52.482;9.762;2022-10-16T16:32:06;1.52;;;0.90;;
33254;SDS011;19623;52.482;9.762;2022-10-16T16:34:32;2.70;;;0.90;;
33254;SDS011;19623;52.482;9.762;2022-10-16T16:36:58;1.88;;;0.90;;
33254;SDS011;19623;52.482;9.762;2022-10-16T16:39:24;2.80;;;1.15;;
33254;SDS011;19623;52.482;9.762;2022-10-16T16:41:50;2.92;;;1.23;;
33254;SDS011;19623;52.482;9.762;2022-10-16T16:44:16;3.55;;;1.10;;
33254;SDS011;19623;52.482;9.762;2022-10-16T16:46:42;5.18;;;1.13;;
33254;SDS011;19623;52.482;9.762;2022-10-16T16:49:09;2.08;;;1.05;;
33254;SDS011;19623;52.482;9.762;2022-10-16T16:51:36;3.92;;;1.10;;
33254;SDS011;19623;52.482;9.762;2022-10-16T16:54:03;4.15;;;1.30;;
33254;SDS011;19623;52.482;9.762;2022-10-16T16:56:29;3.00;;;1.17;;
33254;SDS011;19623;52.482;9.762;2022-10-16T16:58:55;9.30;;;1.38;;
33254;SDS011;19623;52.482;9.762;2022-10-16T17:01:23;3.95;;;1.52;;
33254;SDS011;19623;52.482;9.762;2022-10-16T17:03:51;3.00;;;1.20;;
33254;SDS011;19623;52.482;9.762;2022-10-16T17:06:19;2.00;;;1.13;;
33254;SDS011;19623;52.482;9.762;2022-10-16T17:08:54;3.00;;;1.17;;
33254;SDS011;19623;52.482;9.762;2022-10-16T17:11:39;4.07;;;1.33;;